sensor_id;sensor_type;location;lat;lon;timestamp;pressure;altitude;pressure_sealevel;temperature;humidity
53715;BME280;39608;55.630;37.864;2022-10-16T00:02:51;100729.13;;;6.36;57.02
53715;BME280;39608;55.630;37.864;2022-10-16T00:07:55;100724.47;;;6.31;57.38
53715;BME280;39608;55.630;37.864;2022-10-16T00:12:58;100741.66;;;6.30;57.20
53715;BME280;39608;55.630;37.864;2022-10-16T00:18:00;100734.06;;;6.27;57.15
53715;BME280;39608;55.630;37.864;2022-10-16T00:23:03;100739.94;;;6.24;57.39
53715;BME280;39608;55.630;37.864;2022-10-16T00:28:06;100740.28;;;6.16;57.43
53715;BME280;39608;55.630;37.864;2022-10-16T00:33:10;100743.91;;;6.10;57.37
53715;BME280;39608;55.630;37.864;2022-10-16T00:38:13;100741.09;;;6.05;57.98
53715;BME280;39608;55.630;37.864;2022-10-16T00:43:35;100744.38;;;6.07;57.82
53715;BME280;39608;55.630;37.864;2022-10-16T00:48:37;100748.91;;;5.94;57.72
53715;BME280;39608;55.630;37.864;2022-10-16T00:53:42;100745.41;;;5.94;57.91
53715;BME280;39608;55.630;37.864;2022-10-16T00:58:44;100749.47;;;5.85;57.98
53715;BME280;39608;55.630;37.864;2022-10-16T01:03:46;100749.13;;;5.81;58.38
53715;BME280;39608;55.630;37.864;2022-10-16T01:08:59;100758.38;;;5.85;58.59
53715;BME280;39608;55.630;37.864;2022-10-16T01:14:08;100745.59;;;5.69;58.49
53715;BME280;39608;55.630;37.864;2022-10-16T01:19:20;100766.19;;;5.75;58.60
53715;BME280;39608;55.630;37.864;2022-10-16T01:24:33;100761.28;;;5.72;58.18
53715;BME280;39608;55.630;37.864;2022-10-16T01:29:44;100763.84;;;5.66;58.54
53715;BME280;39608;55.630;37.864;2022-10-16T01:34:53;100775.06;;;5.63;58.72
53715;BME280;39608;55.630;37.864;2022-10-16T01:39:59;100766.06;;;5.58;58.93
53715;BME280;39608;55.630;37.864;2022-10-16T01:45:05;100779.59;;;5.51;58.61
53715;BME280;39608;55.630;37.864;2022-10-16T01:50:09;100775.25;;;5.38;58.57
53715;BME280;39608;55.630;37.864;2022-10-16T01:55:13;100775.13;;;5.33;59.12
53715;BME280;39608;55.630;37.864;2022-10-16T02:00:19;100784.59;;;5.36;59.07
53715;BME280;39608;55.630;37.864;2022-10-16T02:05:26;100778.00;;;5.31;59.28
53715;BME280;39608;55.630;37.864;2022-10-16T02:10:30;100781.41;;;5.27;59.38
53715;BME280;39608;55.630;37.864;2022-10-16T02:15:33;100779.97;;;5.24;59.37
53715;BME280;39608;55.630;37.864;2022-10-16T02:20:41;100776.47;;;5.24;59.35
53715;BME280;39608;55.630;37.864;2022-10-16T02:25:47;100777.75;;;5.21;59.46
53715;BME280;39608;55.630;37.864;2022-10-16T02:30:53;100788.34;;;5.16;59.42
53715;BME280;39608;55.630;37.864;2022-10-16T02:35:57;100791.88;;;5.17;59.34
53715;BME280;39608;55.630;37.864;2022-10-16T02:40:59;100784.94;;;5.09;59.70
53715;BME280;39608;55.630;37.864;2022-10-16T02:46:03;100780.84;;;5.06;59.77
53715;BME280;39608;55.630;37.864;2022-10-16T02:51:06;100778.91;;;4.95;60.01
53715;BME280;39608;55.630;37.864;2022-10-16T02:56:08;100785.13;;;4.95;59.79
53715;BME280;39608;55.630;37.864;2022-10-16T03:01:11;100798.19;;;4.92;60.05
53715;BME280;39608;55.630;37.864;2022-10-16T03:06:14;100802.13;;;4.89;59.72
53715;BME280;39608;55.630;37.864;2022-10-16T03:11:16;100804.81;;;4.89;59.54
53715;BME280;39608;55.630;37.864;2022-10-16T03:16:20;100792.22;;;4.90;59.73
53715;BME280;39608;55.630;37.864;2022-10-16T03:21:22;100789.47;;;4.78;60.21
53715;BME280;39608;55.630;37.864;2022-10-16T03:26:24;100802.81;;;4.85;59.80
53715;BME280;39608;55.630;37.864;2022-10-16T03:31:27;100804.09;;;4.82;59.55
53715;BME280;39608;55.630;37.864;2022-10-16T03:36:29;100808.09;;;4.73;60.40
53715;BME280;39608;55.630;37.864;2022-10-16T03:41:31;100813.47;;;4.73;60.44
53715;BME280;39608;55.630;37.864;2022-10-16T03:46:35;100817.25;;;4.72;60.28
53715;BME280;39608;55.630;37.864;2022-10-16T03:51:37;100817.53;;;4.63;60.22
53715;BME280;39608;55.630;37.864;2022-10-16T03:56:39;100803.72;;;4.60;60.24
53715;BME280;39608;55.630;37.864;2022-10-16T04:01:42;100805.59;;;4.59;60.53
53715;BME280;39608;55.630;37.864;2022-10-16T04:06:44;100817.59;;;4.57;60.47
53715;BME280;39608;55.630;37.864;2022-10-16T04:11:46;100814.91;;;4.57;60.62
53715;BME280;39608;55.630;37.864;2022-10-16T04:16:50;100812.44;;;4.55;60.69
53715;BME280;39608;55.630;37.864;2022-10-16T04:21:52;100827.06;;;4.59;60.87
53715;BME280;39608;55.630;37.864;2022-10-16T04:26:54;100815.34;;;4.54;60.43
53715;BME280;39608;55.630;37.864;2022-10-16T04:31:57;100830.44;;;4.55;60.73
53715;BME280;39608;55.630;37.864;2022-10-16T04:36:59;100829.38;;;4.56;60.75
53715;BME280;39608;55.630;37.864;2022-10-16T04:42:01;100834.16;;;4.54;60.57
53715;BME280;39608;55.630;37.864;2022-10-16T04:47:05;100833.94;;;4.55;61.09
53715;BME280;39608;55.630;37.864;2022-10-16T04:52:08;100837.22;;;4.57;60.69
53715;BME280;39608;55.630;37.864;2022-10-16T04:57:10;100844.06;;;4.53;60.82
53715;BME280;39608;55.630;37.864;2022-10-16T05:02:14;100840.34;;;4.54;60.90
53715;BME280;39608;55.630;37.864;2022-10-16T05:07:16;100841.78;;;4.57;60.66
53715;BME280;39608;55.630;37.864;2022-10-16T05:12:18;100839.47;;;4.60;60.69
53715;BME280;39608;55.630;37.864;2022-10-16T05:17:22;100845.38;;;4.69;60.40
53715;BME280;39608;55.630;37.864;2022-10-16T05:22:24;100840.44;;;4.66;60.84
53715;BME280;39608;55.630;37.864;2022-10-16T05:27:29;100837.91;;;4.71;60.59
53715;BME280;39608;55.630;37.864;2022-10-16T05:32:33;100860.75;;;4.80;60.76
53715;BME280;39608;55.630;37.864;2022-10-16T05:37:35;100857.25;;;4.80;60.58
53715;BME280;39608;55.630;37.864;2022-10-16T05:42:37;100858.38;;;4.91;60.46
53715;BME280;39608;55.630;37.864;2022-10-16T05:47:40;100859.03;;;5.05;60.80
53715;BME280;39608;55.630;37.864;2022-10-16T05:52:42;100862.34;;;5.07;60.90
53715;BME280;39608;55.630;37.864;2022-10-16T05:57:44;100866.22;;;5.11;60.77
53715;BME280;39608;55.630;37.864;2022-10-16T06:02:48;100864.28;;;5.18;60.46
53715;BME280;39608;55.630;37.864;2022-10-16T06:07:50;100874.13;;;5.24;60.10
53715;BME280;39608;55.630;37.864;2022-10-16T06:12:52;100876.50;;;5.32;60.67
53715;BME280;39608;55.630;37.864;2022-10-16T06:17:55;100873.88;;;5.44;60.72
53715;BME280;39608;55.630;37.864;2022-10-16T06:22:57;100876.03;;;5.54;59.74
53715;BME280;39608;55.630;37.864;2022-10-16T06:27:59;100890.22;;;5.61;59.78
53715;BME280;39608;55.630;37.864;2022-10-16T06:33:03;100887.94;;;5.77;59.95
53715;BME280;39608;55.630;37.864;2022-10-16T06:38:05;100882.22;;;5.85;59.86
53715;BME280;39608;55.630;37.864;2022-10-16T06:43:07;100877.72;;;5.97;59.75
53715;BME280;39608;55.630;37.864;2022-10-16T06:48:10;100889.94;;;6.12;59.69
53715;BME280;39608;55.630;37.864;2022-10-16T06:53:12;100878.84;;;6.20;59.69
53715;BME280;39608;55.630;37.864;2022-10-16T06:58:14;100888.31;;;6.34;59.28
53715;BME280;39608;55.630;37.864;2022-10-16T07:03:17;100907.09;;;6.53;59.25
53715;BME280;39608;55.630;37.864;2022-10-16T07:08:19;100907.09;;;6.65;58.79
53715;BME280;39608;55.630;37.864;2022-10-16T07:13:21;100902.53;;;6.77;58.90
53715;BME280;39608;55.630;37.864;2022-10-16T07:18:25;100915.09;;;6.95;58.58
53715;BME280;39608;55.630;37.864;2022-10-16T07:23:29;100908.00;;;7.06;57.96
53715;BME280;39608;55.630;37.864;2022-10-16T07:28:31;100913.41;;;7.18;57.96
53715;BME280;39608;55.630;37.864;2022-10-16T07:33:35;100914.78;;;7.32;57.85
53715;BME280;39608;55.630;37.864;2022-10-16T07:38:37;100894.91;;;7.39;57.67
53715;BME280;39608;55.630;37.864;2022-10-16T07:43:40;100907.66;;;7.55;57.54
53715;BME280;39608;55.630;37.864;2022-10-16T07:48:43;100906.91;;;7.71;57.50
53715;BME280;39608;55.630;37.864;2022-10-16T07:53:48;100900.88;;;7.81;57.32
53715;BME280;39608;55.630;37.864;2022-10-16T07:58:51;100903.13;;;8.01;56.79
53715;BME280;39608;55.630;37.864;2022-10-16T08:03:54;100895.13;;;8.23;56.48
53715;BME280;39608;55.630;37.864;2022-10-16T08:08:56;100903.56;;;8.44;56.33
53715;BME280;39608;55.630;37.864;2022-10-16T08:14:00;100897.81;;;8.92;56.02
53715;BME280;39608;55.630;37.864;2022-10-16T08:19:04;100904.22;;;10.34;53.52
53715;BME280;39608;55.630;37.864;2022-10-16T08:24:06;100911.53;;;11.77;50.72
53715;BME280;39608;55.630;37.864;2022-10-16T08:29:08;100909.41;;;12.72;49.00
53715;BME280;39608;55.630;37.864;2022-10-16T08:34:11;100903.56;;;13.30;47.26
53715;BME280;39608;55.630;37.864;2022-10-16T08:39:14;100908.13;;;14.00;45.41
53715;BME280;39608;55.630;37.864;2022-10-16T08:44:32;100910.06;;;14.93;46.15
53715;BME280;39608;55.630;37.864;2022-10-16T08:49:41;100900.47;;;14.95;43.97
53715;BME280;39608;55.630;37.864;2022-10-16T08:54:46;100903.00;;;14.92;43.37
53715;BME280;39608;55.630;37.864;2022-10-16T08:59:50;100891.47;;;14.70;42.84
53715;BME280;39608;55.630;37.864;2022-10-16T09:05:22;100898.22;;;15.27;44.91
53715;BME280;39608;55.630;37.864;2022-10-16T09:10:36;100901.16;;;15.30;42.69
53715;BME280;39608;55.630;37.864;2022-10-16T09:15:44;100894.63;;;14.48;42.87
53715;BME280;39608;55.630;37.864;2022-10-16T09:20:55;100890.09;;;13.99;43.48
53715;BME280;39608;55.630;37.864;2022-10-16T09:26:01;100884.41;;;13.50;43.46
53715;BME280;39608;55.630;37.864;2022-10-16T09:31:04;100880.13;;;13.29;42.98
53715;BME280;39608;55.630;37.864;2022-10-16T09:36:08;100874.16;;;13.27;42.97
53715;BME280;39608;55.630;37.864;2022-10-16T09:41:16;100881.78;;;13.25;43.17
53715;BME280;39608;55.630;37.864;2022-10-16T09:46:26;100864.66;;;13.14;42.72
53715;BME280;39608;55.630;37.864;2022-10-16T09:51:32;100873.09;;;13.17;42.40
53715;BME280;39608;55.630;37.864;2022-10-16T09:56:36;100869.28;;;13.13;42.07
53715;BME280;39608;55.630;37.864;2022-10-16T10:01:41;100873.88;;;13.23;41.61
53715;BME280;39608;55.630;37.864;2022-10-16T10:06:46;100863.25;;;13.27;41.48
53715;BME280;39608;55.630;37.864;2022-10-16T10:11:52;100853.72;;;13.29;40.96
53715;BME280;39608;55.630;37.864;2022-10-16T10:17:09;100869.97;;;13.50;41.82
53715;BME280;39608;55.630;37.864;2022-10-16T10:22:28;100868.59;;;13.52;41.93
53715;BME280;39608;55.630;37.864;2022-10-16T10:27:36;100858.81;;;13.51;40.80
53715;BME280;39608;55.630;37.864;2022-10-16T10:32:48;100858.81;;;13.51;40.53
53715;BME280;39608;55.630;37.864;2022-10-16T10:38:05;100856.63;;;13.48;40.99
53715;BME280;39608;55.630;37.864;2022-10-16T10:43:17;100847.94;;;13.46;40.59
53715;BME280;39608;55.630;37.864;2022-10-16T10:48:43;100850.63;;;13.51;41.07
53715;BME280;39608;55.630;37.864;2022-10-16T10:53:55;100850.94;;;13.40;40.52
53715;BME280;39608;55.630;37.864;2022-10-16T11:05:06;100845.19;;;13.46;40.67
53715;BME280;39608;55.630;37.864;2022-10-16T11:10:21;100838.69;;;13.42;40.73
53715;BME280;39608;55.630;37.864;2022-10-16T11:15:28;100839.25;;;13.39;40.71
53715;BME280;39608;55.630;37.864;2022-10-16T11:20:32;100836.44;;;13.89;41.58
53715;BME280;39608;55.630;37.864;2022-10-16T11:25:39;100828.06;;;13.41;40.75
53715;BME280;39608;55.630;37.864;2022-10-16T11:30:44;100822.41;;;13.22;40.91
53715;BME280;39608;55.630;37.864;2022-10-16T11:35:52;100832.22;;;13.23;41.07
53715;BME280;39608;55.630;37.864;2022-10-16T11:41:01;100823.50;;;13.21;40.90
53715;BME280;39608;55.630;37.864;2022-10-16T11:46:11;100809.88;;;13.21;40.96
53715;BME280;39608;55.630;37.864;2022-10-16T11:51:21;100810.44;;;13.17;41.10
53715;BME280;39608;55.630;37.864;2022-10-16T11:56:30;100804.78;;;13.04;41.06
53715;BME280;39608;55.630;37.864;2022-10-16T12:01:40;100814.00;;;13.13;40.73
53715;BME280;39608;55.630;37.864;2022-10-16T12:06:47;100815.06;;;13.17;41.01
53715;BME280;39608;55.630;37.864;2022-10-16T12:11:53;100809.63;;;13.17;41.11
53715;BME280;39608;55.630;37.864;2022-10-16T12:16:57;100812.09;;;13.13;41.05
53715;BME280;39608;55.630;37.864;2022-10-16T12:22:02;100808.78;;;13.22;41.25
53715;BME280;39608;55.630;37.864;2022-10-16T12:27:21;100816.91;;;13.37;41.48
53715;BME280;39608;55.630;37.864;2022-10-16T12:32:32;100800.66;;;13.16;40.96
53715;BME280;39608;55.630;37.864;2022-10-16T12:37:38;100787.91;;;13.01;40.80
53715;BME280;39608;55.630;37.864;2022-10-16T12:42:42;100799.03;;;13.10;41.14
53715;BME280;39608;55.630;37.864;2022-10-16T12:47:51;100784.34;;;13.11;41.41
53715;BME280;39608;55.630;37.864;2022-10-16T12:52:54;100785.69;;;13.14;41.04
53715;BME280;39608;55.630;37.864;2022-10-16T12:58:18;100795.91;;;14.41;40.27
53715;BME280;39608;55.630;37.864;2022-10-16T13:09:15;100804.19;;;16.32;36.95
53715;BME280;39608;55.630;37.864;2022-10-16T13:14:38;100804.63;;;16.67;37.05
53715;BME280;39608;55.630;37.864;2022-10-16T13:19:53;100794.13;;;16.13;36.51
53715;BME280;39608;55.630;37.864;2022-10-16T13:25:13;100798.94;;;14.88;38.46
53715;BME280;39608;55.630;37.864;2022-10-16T13:30:23;100786.81;;;13.92;39.71
53715;BME280;39608;55.630;37.864;2022-10-16T13:35:27;100797.53;;;13.44;40.70
53715;BME280;39608;55.630;37.864;2022-10-16T13:40:30;100793.06;;;13.08;41.27
53715;BME280;39608;55.630;37.864;2022-10-16T13:45:36;100801.31;;;12.93;41.63
53715;BME280;39608;55.630;37.864;2022-10-16T13:50:40;100795.09;;;12.72;42.18
53715;BME280;39608;55.630;37.864;2022-10-16T13:55:42;100798.69;;;12.57;42.20
53715;BME280;39608;55.630;37.864;2022-10-16T14:00:56;100799.22;;;12.59;42.47
53715;BME280;39608;55.630;37.864;2022-10-16T14:06:00;100799.28;;;12.28;42.76
53715;BME280;39608;55.630;37.864;2022-10-16T14:11:03;100792.00;;;12.13;42.92
53715;BME280;39608;55.630;37.864;2022-10-16T14:16:10;100791.69;;;12.04;43.25
53715;BME280;39608;55.630;37.864;2022-10-16T14:21:14;100782.16;;;11.91;43.20
53715;BME280;39608;55.630;37.864;2022-10-16T14:26:19;100787.06;;;11.74;43.80
53715;BME280;39608;55.630;37.864;2022-10-16T14:31:28;100787.31;;;11.72;43.88
53715;BME280;39608;55.630;37.864;2022-10-16T14:36:33;100790.56;;;11.54;44.00
53715;BME280;39608;55.630;37.864;2022-10-16T14:41:41;100793.28;;;11.54;44.09
53715;BME280;39608;55.630;37.864;2022-10-16T14:46:47;100795.44;;;11.36;44.42
53715;BME280;39608;55.630;37.864;2022-10-16T14:51:49;100788.88;;;11.27;44.32
53715;BME280;39608;55.630;37.864;2022-10-16T14:56:54;100799.72;;;11.17;44.89
53715;BME280;39608;55.630;37.864;2022-10-16T15:02:05;100798.66;;;11.23;44.88
53715;BME280;39608;55.630;37.864;2022-10-16T15:07:15;100801.28;;;10.97;45.10
53715;BME280;39608;55.630;37.864;2022-10-16T15:12:17;100814.53;;;10.88;45.69
53715;BME280;39608;55.630;37.864;2022-10-16T15:17:21;100808.84;;;10.85;45.63
53715;BME280;39608;55.630;37.864;2022-10-16T15:22:23;100808.75;;;10.69;46.00
53715;BME280;39608;55.630;37.864;2022-10-16T15:27:25;100807.13;;;10.68;46.05
53715;BME280;39608;55.630;37.864;2022-10-16T15:32:29;100817.09;;;10.52;46.87
53715;BME280;39608;55.630;37.864;2022-10-16T15:37:32;100802.59;;;10.36;46.90
53715;BME280;39608;55.630;37.864;2022-10-16T15:42:35;100799.25;;;10.29;47.20
53715;BME280;39608;55.630;37.864;2022-10-16T15:47:39;100804.38;;;10.20;47.51
53715;BME280;39608;55.630;37.864;2022-10-16T15:52:42;100798.56;;;10.06;47.83
53715;BME280;39608;55.630;37.864;2022-10-16T15:57:45;100799.69;;;10.10;47.91
53715;BME280;39608;55.630;37.864;2022-10-16T16:02:52;100806.97;;;10.05;48.35
53715;BME280;39608;55.630;37.864;2022-10-16T16:07:54;100799.50;;;9.90;48.41
53715;BME280;39608;55.630;37.864;2022-10-16T16:12:57;100795.13;;;9.84;48.62
53715;BME280;39608;55.630;37.864;2022-10-16T16:18:01;100795.34;;;9.77;48.47
53715;BME280;39608;55.630;37.864;2022-10-16T16:23:06;100788.50;;;9.69;48.74
53715;BME280;39608;55.630;37.864;2022-10-16T16:28:08;100795.00;;;9.68;48.62
53715;BME280;39608;55.630;37.864;2022-10-16T16:33:12;100787.69;;;9.69;48.49
53715;BME280;39608;55.630;37.864;2022-10-16T16:38:14;100775.13;;;9.57;48.75
53715;BME280;39608;55.630;37.864;2022-10-16T16:43:17;100791.06;;;9.54;48.62
53715;BME280;39608;55.630;37.864;2022-10-16T16:48:21;100783.19;;;9.52;48.63
53715;BME280;39608;55.630;37.864;2022-10-16T16:53:23;100794.81;;;9.48;48.57
53715;BME280;39608;55.630;37.864;2022-10-16T16:58:25;100801.25;;;9.41;49.14
53715;BME280;39608;55.630;37.864;2022-10-16T17:03:30;100801.53;;;9.45;48.91
53715;BME280;39608;55.630;37.864;2022-10-16T17:08:33;100809.31;;;9.36;49.51
53715;BME280;39608;55.630;37.864;2022-10-16T17:13:37;100807.59;;;9.30;49.32
53715;BME280;39608;55.630;37.864;2022-10-16T17:18:40;100805.94;;;9.24;49.57
53715;BME280;39608;55.630;37.864;2022-10-16T17:23:45;100798.25;;;9.16;49.83
53715;BME280;39608;55.630;37.864;2022-10-16T17:28:50;100799.28;;;9.10;49.89
53715;BME280;39608;55.630;37.864;2022-10-16T17:33:55;100799.72;;;9.01;50.19
53715;BME280;39608;55.630;37.864;2022-10-16T17:38:57;100787.94;;;8.90;50.40
53715;BME280;39608;55.630;37.864;2022-10-16T17:44:01;100795.69;;;8.82;50.39
53715;BME280;39608;55.630;37.864;2022-10-16T17:49:05;100795.69;;;8.82;50.35
53715;BME280;39608;55.630;37.864;2022-10-16T17:54:07;100805.88;;;8.75;50.66
53715;BME280;39608;55.630;37.864;2022-10-16T17:59:10;100809.66;;;8.73;50.85
53715;BME280;39608;55.630;37.864;2022-10-16T18:04:15;100797.06;;;8.62;50.83
53715;BME280;39608;55.630;37.864;2022-10-16T18:09:18;100810.59;;;8.62;51.06
53715;BME280;39608;55.630;37.864;2022-10-16T18:14:20;100799.13;;;8.55;51.00
53715;BME280;39608;55.630;37.864;2022-10-16T18:19:25;100803.44;;;8.56;51.14
53715;BME280;39608;55.630;37.864;2022-10-16T18:24:27;100807.41;;;8.48;51.16
53715;BME280;39608;55.630;37.864;2022-10-16T18:29:29;100805.78;;;8.47;51.07
53715;BME280;39608;55.630;37.864;2022-10-16T18:34:36;100802.81;;;8.49;50.96
53715;BME280;39608;55.630;37.864;2022-10-16T18:39:38;100793.47;;;8.39;50.91
53715;BME280;39608;55.630;37.864;2022-10-16T18:44:40;100804.03;;;8.41;50.94
53715;BME280;39608;55.630;37.864;2022-10-16T18:49:43;100793.47;;;8.39;50.74
53715;BME280;39608;55.630;37.864;2022-10-16T18:54:47;100790.94;;;8.33;51.04
53715;BME280;39608;55.630;37.864;2022-10-16T18:59:49;100796.28;;;8.28;50.89
53715;BME280;39608;55.630;37.864;2022-10-16T19:04:53;100791.69;;;8.28;50.97
53715;BME280;39608;55.630;37.864;2022-10-16T19:09:55;100794.06;;;8.25;51.05
53715;BME280;39608;55.630;37.864;2022-10-16T19:14:57;100788.91;;;8.23;51.06
53715;BME280;39608;55.630;37.864;2022-10-16T19:20:00;100792.16;;;8.25;50.95
53715;BME280;39608;55.630;37.864;2022-10-16T19:25:04;100792.66;;;8.22;50.85
53715;BME280;39608;55.630;37.864;2022-10-16T19:30:07;100786.63;;;8.15;51.00
53715;BME280;39608;55.630;37.864;2022-10-16T19:35:11;100789.06;;;8.16;51.27
53715;BME280;39608;55.630;37.864;2022-10-16T19:40:13;100783.03;;;8.09;51.18
53715;BME280;39608;55.630;37.864;2022-10-16T19:45:15;100790.25;;;8.03;51.45
53715;BME280;39608;55.630;37.864;2022-10-16T19:50:19;100785.38;;;8.05;51.20
53715;BME280;39608;55.630;37.864;2022-10-16T19:55:21;100793.19;;;8.02;51.17
53715;BME280;39608;55.630;37.864;2022-10-16T20:00:23;100781.41;;;7.91;51.34
53715;BME280;39608;55.630;37.864;2022-10-16T20:05:26;100795.78;;;7.97;51.61
53715;BME280;39608;55.630;37.864;2022-10-16T20:10:28;100792.75;;;7.93;51.64
53715;BME280;39608;55.630;37.864;2022-10-16T20:15:30;100785.75;;;7.92;51.57
53715;BME280;39608;55.630;37.864;2022-10-16T20:20:37;100780.59;;;7.91;51.65
53715;BME280;39608;55.630;37.864;2022-10-16T20:25:40;100777.78;;;7.85;51.63
53715;BME280;39608;55.630;37.864;2022-10-16T20:30:45;100782.38;;;7.85;51.62
53715;BME280;39608;55.630;37.864;2022-10-16T20:35:49;100762.00;;;7.77;51.85
53715;BME280;39608;55.630;37.864;2022-10-16T20:40:51;100771.16;;;7.76;51.82
53715;BME280;39608;55.630;37.864;2022-10-16T20:45:58;100774.09;;;7.75;52.11
53715;BME280;39608;55.630;37.864;2022-10-16T20:51:11;100781.38;;;7.74;51.86
53715;BME280;39608;55.630;37.864;2022-10-16T20:56:13;100774.75;;;7.65;52.18
53715;BME280;39608;55.630;37.864;2022-10-16T21:01:19;100769.59;;;7.63;52.21
53715;BME280;39608;55.630;37.864;2022-10-16T21:06:23;100753.78;;;7.55;52.36
53715;BME280;39608;55.630;37.864;2022-10-16T21:11:28;100759.19;;;7.55;52.37
53715;BME280;39608;55.630;37.864;2022-10-16T21:16:30;100762.63;;;7.50;52.37
53715;BME280;39608;55.630;37.864;2022-10-16T21:21:36;100758.03;;;7.51;52.39
53715;BME280;39608;55.630;37.864;2022-10-16T21:26:38;100753.63;;;7.45;52.71
53715;BME280;39608;55.630;37.864;2022-10-16T21:31:41;100747.06;;;7.41;52.69
53715;BME280;39608;55.630;37.864;2022-10-16T21:36:45;100750.34;;;7.43;52.78
53715;BME280;39608;55.630;37.864;2022-10-16T21:41:48;100753.28;;;7.41;52.68
53715;BME280;39608;55.630;37.864;2022-10-16T21:46:50;100749.09;;;7.33;52.88
53715;BME280;39608;55.630;37.864;2022-10-16T21:51:53;100750.66;;;7.29;53.00
53715;BME280;39608;55.630;37.864;2022-10-16T21:56:55;100750.56;;;7.24;53.22
53715;BME280;39608;55.630;37.864;2022-10-16T22:01:57;100752.69;;;7.22;53.12
53715;BME280;39608;55.630;37.864;2022-10-16T22:07:03;100746.69;;;7.20;53.11
53715;BME280;39608;55.630;37.864;2022-10-16T22:12:05;100753.75;;;7.21;53.26
53715;BME280;39608;55.630;37.864;2022-10-16T22:17:07;100759.38;;;7.19;53.32
53715;BME280;39608;55.630;37.864;2022-10-16T22:22:10;100746.44;;;7.22;53.26
53715;BME280;39608;55.630;37.864;2022-10-16T22:27:12;100752.81;;;7.15;53.42
53715;BME280;39608;55.630;37.864;2022-10-16T22:32:14;100741.69;;;7.12;53.37
53715;BME280;39608;55.630;37.864;2022-10-16T22:37:18;100742.53;;;7.12;53.63
53715;BME280;39608;55.630;37.864;2022-10-16T22:42:20;100746.41;;;7.05;53.71
53715;BME280;39608;55.630;37.864;2022-10-16T22:47:22;100754.41;;;6.99;53.74
53715;BME280;39608;55.630;37.864;2022-10-16T22:52:25;100759.78;;;6.99;53.95
53715;BME280;39608;55.630;37.864;2022-10-16T22:57:27;100750.78;;;6.94;53.84
53715;BME280;39608;55.630;37.864;2022-10-16T23:02:30;100757.50;;;6.91;54.08
53715;BME280;39608;55.630;37.864;2022-10-16T23:07:33;100755.00;;;6.90;54.16
53715;BME280;39608;55.630;37.864;2022-10-16T23:12:35;100746.50;;;6.81;54.07
53715;BME280;39608;55.630;37.864;2022-10-16T23:17:37;100742.16;;;6.80;54.19
53715;BME280;39608;55.630;37.864;2022-10-16T23:22:41;100739.94;;;6.77;54.50
53715;BME280;39608;55.630;37.864;2022-10-16T23:27:43;100720.38;;;6.70;54.41
53715;BME280;39608;55.630;37.864;2022-10-16T23:32:45;100710.22;;;6.60;54.70
53715;BME280;39608;55.630;37.864;2022-10-16T23:37:49;100712.00;;;6.54;54.86
53715;BME280;39608;55.630;37.864;2022-10-16T23:42:51;100713.63;;;6.55;55.08
53715;BME280;39608;55.630;37.864;2022-10-16T23:47:53;100706.03;;;6.52;54.83
53715;BME280;39608;55.630;37.864;2022-10-16T23:52:56;100700.97;;;6.56;54.94
53715;BME280;39608;55.630;37.864;2022-10-16T23:57:58;100710.34;;;6.53;55.10
